sensor_id;sensor_type;location;lat;lon;timestamp;P1;durP1;ratioP1;P2;durP2;ratioP2
4422;SDS011;2224;49.814;8.650;2022-12-31T00:01:57;2.23;;;2.03;;
4422;SDS011;2224;49.814;8.650;2022-12-31T00:04:22;2.97;;;2.10;;
4422;SDS011;2224;49.814;8.650;2022-12-31T00:06:48;2.87;;;2.37;;
4422;SDS011;2224;49.814;8.650;2022-12-31T00:09:13;2.97;;;2.00;;
4422;SDS011;2224;49.814;8.650;2022-12-31T00:11:41;2.60;;;2.13;;
4422;SDS011;2224;49.814;8.650;2022-12-31T00:14:06;1.70;;;1.60;;
4422;SDS011;2224;49.814;8.650;2022-12-31T00:16:36;3.80;;;1.40;;
4422;SDS011;2224;49.814;8.650;2022-12-31T00:19:03;2.20;;;1.93;;
4422;SDS011;2224;49.814;8.650;2022-12-31T00:21:30;2.03;;;1.50;;
4422;SDS011;2224;49.814;8.650;2022-12-31T00:23:56;2.50;;;1.80;;
4422;SDS011;2224;49.814;8.650;2022-12-31T00:26:23;2.30;;;2.03;;
4422;SDS011;2224;49.814;8.650;2022-12-31T00:28:50;1.60;;;1.50;;
4422;SDS011;2224;49.814;8.650;2022-12-31T00:31:18;2.90;;;1.70;;
4422;SDS011;2224;49.814;8.650;2022-12-31T00:33:47;2.90;;;1.60;;
4422;SDS011;2224;49.814;8.650;2022-12-31T00:36:14;1.67;;;1.57;;
4422;SDS011;2224;49.814;8.650;2022-12-31T00:38:42;1.50;;;1.40;;
4422;SDS011;2224;49.814;8.650;2022-12-31T00:41:09;1.67;;;1.37;;
4422;SDS011;2224;49.814;8.650;2022-12-31T00:43:35;2.23;;;1.27;;
4422;SDS011;2224;49.814;8.650;2022-12-31T00:46:01;1.50;;;1.40;;
4422;SDS011;2224;49.814;8.650;2022-12-31T00:48:27;1.70;;;1.60;;
4422;SDS011;2224;49.814;8.650;2022-12-31T00:50:53;1.27;;;1.17;;
4422;SDS011;2224;49.814;8.650;2022-12-31T00:53:22;1.27;;;1.07;;
4422;SDS011;2224;49.814;8.650;2022-12-31T00:55:47;1.40;;;1.30;;
4422;SDS011;2224;49.814;8.650;2022-12-31T00:58:13;1.20;;;1.10;;
4422;SDS011;2224;49.814;8.650;2022-12-31T01:00:39;1.40;;;1.30;;
4422;SDS011;2224;49.814;8.650;2022-12-31T01:03:05;1.23;;;1.13;;
4422;SDS011;2224;49.814;8.650;2022-12-31T01:05:31;1.93;;;1.30;;
4422;SDS011;2224;49.814;8.650;2022-12-31T01:07:57;1.50;;;1.40;;
4422;SDS011;2224;49.814;8.650;2022-12-31T01:10:22;1.43;;;1.30;;
4422;SDS011;2224;49.814;8.650;2022-12-31T01:13:06;2.70;;;1.53;;
4422;SDS011;2224;49.814;8.650;2022-12-31T01:15:32;2.17;;;1.67;;
4422;SDS011;2224;49.814;8.650;2022-12-31T01:17:59;1.73;;;1.40;;
4422;SDS011;2224;49.814;8.650;2022-12-31T01:20:25;1.83;;;1.50;;
4422;SDS011;2224;49.814;8.650;2022-12-31T01:22:50;1.37;;;1.27;;
4422;SDS011;2224;49.814;8.650;2022-12-31T01:25:15;1.70;;;1.30;;
4422;SDS011;2224;49.814;8.650;2022-12-31T01:27:41;3.10;;;1.33;;
4422;SDS011;2224;49.814;8.650;2022-12-31T01:30:06;1.30;;;1.20;;
4422;SDS011;2224;49.814;8.650;2022-12-31T01:32:32;3.80;;;1.40;;
4422;SDS011;2224;49.814;8.650;2022-12-31T01:34:58;2.90;;;1.50;;
4422;SDS011;2224;49.814;8.650;2022-12-31T01:37:23;1.60;;;1.50;;
4422;SDS011;2224;49.814;8.650;2022-12-31T01:39:48;1.50;;;1.40;;
4422;SDS011;2224;49.814;8.650;2022-12-31T01:42:14;2.17;;;1.63;;
4422;SDS011;2224;49.814;8.650;2022-12-31T01:47:05;2.17;;;1.90;;
4422;SDS011;2224;49.814;8.650;2022-12-31T01:49:39;1.53;;;1.43;;
4422;SDS011;2224;49.814;8.650;2022-12-31T01:52:12;2.03;;;1.40;;
4422;SDS011;2224;49.814;8.650;2022-12-31T01:54:39;1.43;;;1.33;;
4422;SDS011;2224;49.814;8.650;2022-12-31T01:57:09;1.40;;;1.30;;
4422;SDS011;2224;49.814;8.650;2022-12-31T01:59:35;1.60;;;1.50;;
4422;SDS011;2224;49.814;8.650;2022-12-31T02:02:00;3.87;;;2.00;;
4422;SDS011;2224;49.814;8.650;2022-12-31T02:04:26;1.57;;;1.40;;
4422;SDS011;2224;49.814;8.650;2022-12-31T02:06:53;3.07;;;1.70;;
4422;SDS011;2224;49.814;8.650;2022-12-31T02:09:21;2.20;;;1.60;;
4422;SDS011;2224;49.814;8.650;2022-12-31T02:11:46;1.80;;;1.70;;
4422;SDS011;2224;49.814;8.650;2022-12-31T02:14:13;3.20;;;1.70;;
4422;SDS011;2224;49.814;8.650;2022-12-31T02:22:02;2.70;;;1.63;;
4422;SDS011;2224;49.814;8.650;2022-12-31T02:27:27;1.97;;;1.47;;
4422;SDS011;2224;49.814;8.650;2022-12-31T02:32:36;4.17;;;1.77;;
4422;SDS011;2224;49.814;8.650;2022-12-31T02:35:07;3.20;;;1.90;;
4422;SDS011;2224;49.814;8.650;2022-12-31T02:37:36;2.10;;;1.90;;
4422;SDS011;2224;49.814;8.650;2022-12-31T02:40:03;2.67;;;1.80;;
4422;SDS011;2224;49.814;8.650;2022-12-31T02:42:31;2.90;;;2.07;;
4422;SDS011;2224;49.814;8.650;2022-12-31T02:44:56;1.73;;;1.63;;
4422;SDS011;2224;49.814;8.650;2022-12-31T02:58:18;3.83;;;1.60;;
4422;SDS011;2224;49.814;8.650;2022-12-31T03:01:11;1.60;;;1.50;;
4422;SDS011;2224;49.814;8.650;2022-12-31T03:03:58;1.60;;;1.50;;
4422;SDS011;2224;49.814;8.650;2022-12-31T03:06:42;1.47;;;1.37;;
4422;SDS011;2224;49.814;8.650;2022-12-31T03:09:07;2.00;;;1.70;;
4422;SDS011;2224;49.814;8.650;2022-12-31T03:11:39;1.83;;;1.60;;
4422;SDS011;2224;49.814;8.650;2022-12-31T03:14:23;1.53;;;1.43;;
4422;SDS011;2224;49.814;8.650;2022-12-31T03:16:48;2.00;;;1.87;;
4422;SDS011;2224;49.814;8.650;2022-12-31T03:19:14;1.83;;;1.30;;
4422;SDS011;2224;49.814;8.650;2022-12-31T03:21:57;2.10;;;1.47;;
4422;SDS011;2224;49.814;8.650;2022-12-31T03:24:42;1.57;;;1.40;;
4422;SDS011;2224;49.814;8.650;2022-12-31T03:27:25;1.73;;;1.50;;
4422;SDS011;2224;49.814;8.650;2022-12-31T03:29:51;1.47;;;1.37;;
4422;SDS011;2224;49.814;8.650;2022-12-31T03:32:16;1.40;;;1.30;;
4422;SDS011;2224;49.814;8.650;2022-12-31T03:34:41;3.33;;;1.43;;
4422;SDS011;2224;49.814;8.650;2022-12-31T03:37:07;1.83;;;1.40;;
4422;SDS011;2224;49.814;8.650;2022-12-31T03:39:32;2.13;;;1.53;;
4422;SDS011;2224;49.814;8.650;2022-12-31T03:41:57;1.87;;;1.30;;
4422;SDS011;2224;49.814;8.650;2022-12-31T03:44:23;1.57;;;1.40;;
4422;SDS011;2224;49.814;8.650;2022-12-31T03:46:48;2.63;;;1.53;;
4422;SDS011;2224;49.814;8.650;2022-12-31T03:49:13;1.60;;;1.50;;
4422;SDS011;2224;49.814;8.650;2022-12-31T03:51:38;1.40;;;1.30;;
4422;SDS011;2224;49.814;8.650;2022-12-31T03:54:04;6.00;;;1.43;;
4422;SDS011;2224;49.814;8.650;2022-12-31T03:56:29;1.60;;;1.23;;
4422;SDS011;2224;49.814;8.650;2022-12-31T03:58:54;1.47;;;1.37;;
4422;SDS011;2224;49.814;8.650;2022-12-31T04:01:20;2.20;;;1.40;;
4422;SDS011;2224;49.814;8.650;2022-12-31T04:03:48;1.30;;;1.20;;
4422;SDS011;2224;49.814;8.650;2022-12-31T04:06:13;1.60;;;1.50;;
4422;SDS011;2224;49.814;8.650;2022-12-31T04:08:38;1.70;;;1.60;;
4422;SDS011;2224;49.814;8.650;2022-12-31T04:11:04;1.60;;;1.50;;
4422;SDS011;2224;49.814;8.650;2022-12-31T04:13:29;1.40;;;1.30;;
4422;SDS011;2224;49.814;8.650;2022-12-31T04:15:55;2.03;;;1.40;;
4422;SDS011;2224;49.814;8.650;2022-12-31T04:18:20;1.53;;;1.43;;
4422;SDS011;2224;49.814;8.650;2022-12-31T04:20:45;2.17;;;1.50;;
4422;SDS011;2224;49.814;8.650;2022-12-31T04:23:11;1.93;;;1.47;;
4422;SDS011;2224;49.814;8.650;2022-12-31T04:25:36;1.50;;;1.30;;
4422;SDS011;2224;49.814;8.650;2022-12-31T04:28:01;1.90;;;1.70;;
4422;SDS011;2224;49.814;8.650;2022-12-31T04:30:26;3.27;;;1.23;;
4422;SDS011;2224;49.814;8.650;2022-12-31T04:32:52;1.60;;;1.50;;
4422;SDS011;2224;49.814;8.650;2022-12-31T04:35:17;2.30;;;1.57;;
4422;SDS011;2224;49.814;8.650;2022-12-31T04:37:42;3.40;;;1.50;;
4422;SDS011;2224;49.814;8.650;2022-12-31T04:40:08;3.93;;;1.30;;
4422;SDS011;2224;49.814;8.650;2022-12-31T04:42:34;3.20;;;1.40;;
4422;SDS011;2224;49.814;8.650;2022-12-31T04:44:59;3.73;;;1.60;;
4422;SDS011;2224;49.814;8.650;2022-12-31T04:47:25;2.20;;;1.63;;
4422;SDS011;2224;49.814;8.650;2022-12-31T04:49:50;1.90;;;1.43;;
4422;SDS011;2224;49.814;8.650;2022-12-31T04:52:15;1.67;;;1.57;;
4422;SDS011;2224;49.814;8.650;2022-12-31T04:54:41;4.40;;;1.50;;
4422;SDS011;2224;49.814;8.650;2022-12-31T04:57:06;2.00;;;1.13;;
4422;SDS011;2224;49.814;8.650;2022-12-31T04:59:31;1.87;;;1.40;;
4422;SDS011;2224;49.814;8.650;2022-12-31T05:01:57;2.80;;;1.60;;
4422;SDS011;2224;49.814;8.650;2022-12-31T05:04:22;4.50;;;1.40;;
4422;SDS011;2224;49.814;8.650;2022-12-31T05:06:47;2.33;;;1.70;;
4422;SDS011;2224;49.814;8.650;2022-12-31T05:09:13;1.60;;;1.50;;
4422;SDS011;2224;49.814;8.650;2022-12-31T05:11:38;2.10;;;1.03;;
4422;SDS011;2224;49.814;8.650;2022-12-31T05:14:03;1.47;;;1.30;;
4422;SDS011;2224;49.814;8.650;2022-12-31T05:16:29;1.40;;;1.30;;
4422;SDS011;2224;49.814;8.650;2022-12-31T05:18:54;2.07;;;1.10;;
4422;SDS011;2224;49.814;8.650;2022-12-31T05:21:19;1.50;;;1.30;;
4422;SDS011;2224;49.814;8.650;2022-12-31T05:23:45;3.93;;;1.37;;
4422;SDS011;2224;49.814;8.650;2022-12-31T05:26:11;1.30;;;1.20;;
4422;SDS011;2224;49.814;8.650;2022-12-31T05:28:36;3.40;;;1.30;;
4422;SDS011;2224;49.814;8.650;2022-12-31T05:31:02;1.73;;;1.57;;
4422;SDS011;2224;49.814;8.650;2022-12-31T05:33:27;2.53;;;1.80;;
4422;SDS011;2224;49.814;8.650;2022-12-31T05:35:53;1.40;;;1.20;;
4422;SDS011;2224;49.814;8.650;2022-12-31T05:38:18;1.80;;;1.37;;
4422;SDS011;2224;49.814;8.650;2022-12-31T05:40:44;0.90;;;0.80;;
4422;SDS011;2224;49.814;8.650;2022-12-31T05:43:09;2.20;;;1.20;;
4422;SDS011;2224;49.814;8.650;2022-12-31T05:45:34;1.30;;;1.20;;
4422;SDS011;2224;49.814;8.650;2022-12-31T05:48:00;2.27;;;1.50;;
4422;SDS011;2224;49.814;8.650;2022-12-31T05:50:25;1.90;;;1.10;;
4422;SDS011;2224;49.814;8.650;2022-12-31T05:52:50;1.60;;;1.17;;
4422;SDS011;2224;49.814;8.650;2022-12-31T05:55:16;2.20;;;1.20;;
4422;SDS011;2224;49.814;8.650;2022-12-31T05:57:41;2.90;;;1.50;;
4422;SDS011;2224;49.814;8.650;2022-12-31T06:00:07;2.20;;;1.43;;
4422;SDS011;2224;49.814;8.650;2022-12-31T06:02:33;1.70;;;0.90;;
4422;SDS011;2224;49.814;8.650;2022-12-31T06:04:59;1.90;;;1.37;;
4422;SDS011;2224;49.814;8.650;2022-12-31T06:07:24;1.97;;;1.30;;
4422;SDS011;2224;49.814;8.650;2022-12-31T06:09:49;2.40;;;1.40;;
4422;SDS011;2224;49.814;8.650;2022-12-31T06:12:15;4.03;;;1.60;;
4422;SDS011;2224;49.814;8.650;2022-12-31T06:14:40;1.83;;;1.40;;
4422;SDS011;2224;49.814;8.650;2022-12-31T06:17:05;1.70;;;1.60;;
4422;SDS011;2224;49.814;8.650;2022-12-31T06:19:31;3.70;;;1.30;;
4422;SDS011;2224;49.814;8.650;2022-12-31T06:21:56;1.77;;;1.10;;
4422;SDS011;2224;49.814;8.650;2022-12-31T06:24:21;1.07;;;1.07;;
4422;SDS011;2224;49.814;8.650;2022-12-31T06:26:47;1.67;;;1.20;;
4422;SDS011;2224;49.814;8.650;2022-12-31T06:29:12;1.27;;;1.17;;
4422;SDS011;2224;49.814;8.650;2022-12-31T06:31:37;1.00;;;0.90;;
4422;SDS011;2224;49.814;8.650;2022-12-31T06:34:03;3.93;;;1.40;;
4422;SDS011;2224;49.814;8.650;2022-12-31T06:36:28;1.40;;;1.20;;
4422;SDS011;2224;49.814;8.650;2022-12-31T06:38:53;1.40;;;1.30;;
4422;SDS011;2224;49.814;8.650;2022-12-31T06:41:19;2.37;;;1.50;;
4422;SDS011;2224;49.814;8.650;2022-12-31T06:43:45;7.47;;;1.30;;
4422;SDS011;2224;49.814;8.650;2022-12-31T06:46:11;3.17;;;1.60;;
4422;SDS011;2224;49.814;8.650;2022-12-31T06:48:38;1.90;;;1.10;;
4422;SDS011;2224;49.814;8.650;2022-12-31T06:51:04;4.60;;;1.40;;
4422;SDS011;2224;49.814;8.650;2022-12-31T06:53:30;1.90;;;1.27;;
4422;SDS011;2224;49.814;8.650;2022-12-31T06:55:56;1.13;;;1.03;;
4422;SDS011;2224;49.814;8.650;2022-12-31T06:58:21;1.40;;;1.30;;
4422;SDS011;2224;49.814;8.650;2022-12-31T07:00:53;1.60;;;1.40;;
4422;SDS011;2224;49.814;8.650;2022-12-31T07:03:57;1.50;;;1.40;;
4422;SDS011;2224;49.814;8.650;2022-12-31T07:06:33;3.13;;;2.00;;
4422;SDS011;2224;49.814;8.650;2022-12-31T07:11:59;1.80;;;1.70;;
4422;SDS011;2224;49.814;8.650;2022-12-31T07:14:33;1.70;;;1.33;;
4422;SDS011;2224;49.814;8.650;2022-12-31T07:17:04;1.53;;;1.40;;
4422;SDS011;2224;49.814;8.650;2022-12-31T07:22:13;2.47;;;1.60;;
4422;SDS011;2224;49.814;8.650;2022-12-31T07:24:40;2.10;;;1.43;;
4422;SDS011;2224;49.814;8.650;2022-12-31T07:30:13;1.50;;;1.23;;
4422;SDS011;2224;49.814;8.650;2022-12-31T07:41:00;3.30;;;1.40;;
4422;SDS011;2224;49.814;8.650;2022-12-31T07:43:49;9.83;;;1.87;;
4422;SDS011;2224;49.814;8.650;2022-12-31T07:49:19;1.40;;;1.30;;
4422;SDS011;2224;49.814;8.650;2022-12-31T07:51:45;1.50;;;1.30;;
4422;SDS011;2224;49.814;8.650;2022-12-31T07:54:10;1.63;;;1.40;;
4422;SDS011;2224;49.814;8.650;2022-12-31T07:56:35;1.87;;;1.50;;
4422;SDS011;2224;49.814;8.650;2022-12-31T07:59:07;1.40;;;1.30;;
4422;SDS011;2224;49.814;8.650;2022-12-31T08:01:50;2.10;;;1.70;;
4422;SDS011;2224;49.814;8.650;2022-12-31T08:04:28;2.83;;;1.80;;
4422;SDS011;2224;49.814;8.650;2022-12-31T08:07:59;3.60;;;1.77;;
4422;SDS011;2224;49.814;8.650;2022-12-31T08:10:23;2.70;;;1.50;;
4422;SDS011;2224;49.814;8.650;2022-12-31T08:13:09;1.90;;;1.70;;
4422;SDS011;2224;49.814;8.650;2022-12-31T08:15:36;2.47;;;1.90;;
4422;SDS011;2224;49.814;8.650;2022-12-31T08:18:02;2.50;;;1.87;;
4422;SDS011;2224;49.814;8.650;2022-12-31T08:20:29;2.00;;;1.60;;
4422;SDS011;2224;49.814;8.650;2022-12-31T08:30:43;2.27;;;2.07;;
4422;SDS011;2224;49.814;8.650;2022-12-31T08:36:30;2.73;;;1.70;;
4422;SDS011;2224;49.814;8.650;2022-12-31T08:39:05;4.27;;;1.57;;
4422;SDS011;2224;49.814;8.650;2022-12-31T08:41:52;2.83;;;1.67;;
4422;SDS011;2224;49.814;8.650;2022-12-31T08:44:22;3.30;;;1.93;;
4422;SDS011;2224;49.814;8.650;2022-12-31T08:49:41;2.67;;;2.10;;
4422;SDS011;2224;49.814;8.650;2022-12-31T08:52:25;1.60;;;1.50;;
4422;SDS011;2224;49.814;8.650;2022-12-31T08:54:51;2.30;;;2.10;;
4422;SDS011;2224;49.814;8.650;2022-12-31T09:00:11;2.67;;;2.20;;
4422;SDS011;2224;49.814;8.650;2022-12-31T09:02:50;2.80;;;1.93;;
4422;SDS011;2224;49.814;8.650;2022-12-31T09:16:18;2.23;;;1.50;;
4422;SDS011;2224;49.814;8.650;2022-12-31T09:19:04;1.67;;;1.40;;
4422;SDS011;2224;49.814;8.650;2022-12-31T09:21:29;1.97;;;1.77;;
4422;SDS011;2224;49.814;8.650;2022-12-31T09:23:56;3.20;;;2.00;;
4422;SDS011;2224;49.814;8.650;2022-12-31T09:29:12;1.50;;;1.40;;
4422;SDS011;2224;49.814;8.650;2022-12-31T09:31:48;3.27;;;1.60;;
4422;SDS011;2224;49.814;8.650;2022-12-31T09:36:54;1.93;;;1.53;;
4422;SDS011;2224;49.814;8.650;2022-12-31T09:39:25;4.40;;;2.00;;
4422;SDS011;2224;49.814;8.650;2022-12-31T09:42:17;3.10;;;1.97;;
4422;SDS011;2224;49.814;8.650;2022-12-31T10:04:18;3.07;;;1.87;;
4422;SDS011;2224;49.814;8.650;2022-12-31T10:09:32;1.60;;;1.40;;
4422;SDS011;2224;49.814;8.650;2022-12-31T10:15:03;5.40;;;1.60;;
4422;SDS011;2224;49.814;8.650;2022-12-31T10:31:39;2.00;;;1.70;;
4422;SDS011;2224;49.814;8.650;2022-12-31T10:34:14;2.03;;;1.60;;
4422;SDS011;2224;49.814;8.650;2022-12-31T10:46:07;2.33;;;1.77;;
4422;SDS011;2224;49.814;8.650;2022-12-31T10:48:50;3.87;;;2.10;;
4422;SDS011;2224;49.814;8.650;2022-12-31T10:51:35;2.17;;;1.60;;
4422;SDS011;2224;49.814;8.650;2022-12-31T11:00:23;3.07;;;1.40;;
4422;SDS011;2224;49.814;8.650;2022-12-31T11:03:13;2.60;;;1.40;;
4422;SDS011;2224;49.814;8.650;2022-12-31T11:11:41;4.73;;;1.50;;
4422;SDS011;2224;49.814;8.650;2022-12-31T11:22:38;3.77;;;2.10;;
4422;SDS011;2224;49.814;8.650;2022-12-31T11:28:03;2.33;;;1.30;;
4422;SDS011;2224;49.814;8.650;2022-12-31T11:33:39;2.03;;;1.40;;
4422;SDS011;2224;49.814;8.650;2022-12-31T11:36:16;1.77;;;1.67;;
4422;SDS011;2224;49.814;8.650;2022-12-31T11:49:43;2.30;;;1.70;;
4422;SDS011;2224;49.814;8.650;2022-12-31T11:57:54;2.20;;;1.77;;
4422;SDS011;2224;49.814;8.650;2022-12-31T12:00:24;2.90;;;1.70;;
4422;SDS011;2224;49.814;8.650;2022-12-31T12:02:51;1.53;;;1.43;;
4422;SDS011;2224;49.814;8.650;2022-12-31T12:05:24;2.87;;;2.03;;
4422;SDS011;2224;49.814;8.650;2022-12-31T12:07:49;3.63;;;1.87;;
4422;SDS011;2224;49.814;8.650;2022-12-31T12:10:20;3.27;;;2.10;;
4422;SDS011;2224;49.814;8.650;2022-12-31T12:12:50;3.17;;;1.67;;
4422;SDS011;2224;49.814;8.650;2022-12-31T12:15:18;1.83;;;1.43;;
4422;SDS011;2224;49.814;8.650;2022-12-31T12:17:53;5.20;;;1.57;;
4422;SDS011;2224;49.814;8.650;2022-12-31T12:20:27;8.47;;;2.00;;
4422;SDS011;2224;49.814;8.650;2022-12-31T12:22:54;3.20;;;1.70;;
4422;SDS011;2224;49.814;8.650;2022-12-31T12:25:22;4.03;;;2.00;;
4422;SDS011;2224;49.814;8.650;2022-12-31T12:27:49;3.50;;;1.93;;
4422;SDS011;2224;49.814;8.650;2022-12-31T12:30:19;2.27;;;1.73;;
4422;SDS011;2224;49.814;8.650;2022-12-31T12:32:51;2.70;;;1.80;;
4422;SDS011;2224;49.814;8.650;2022-12-31T12:35:18;2.60;;;1.83;;
4422;SDS011;2224;49.814;8.650;2022-12-31T12:37:57;3.70;;;1.93;;
4422;SDS011;2224;49.814;8.650;2022-12-31T12:40:28;2.90;;;1.83;;
4422;SDS011;2224;49.814;8.650;2022-12-31T12:42:53;2.57;;;1.53;;
4422;SDS011;2224;49.814;8.650;2022-12-31T12:45:26;3.23;;;1.90;;
4422;SDS011;2224;49.814;8.650;2022-12-31T12:47:57;2.57;;;2.10;;
4422;SDS011;2224;49.814;8.650;2022-12-31T12:50:31;3.13;;;1.40;;
4422;SDS011;2224;49.814;8.650;2022-12-31T13:09:40;1.67;;;1.43;;
4422;SDS011;2224;49.814;8.650;2022-12-31T13:12:14;3.97;;;1.77;;
4422;SDS011;2224;49.814;8.650;2022-12-31T13:14:47;3.43;;;1.33;;
4422;SDS011;2224;49.814;8.650;2022-12-31T13:17:27;2.30;;;1.50;;
4422;SDS011;2224;49.814;8.650;2022-12-31T13:20:14;3.60;;;1.83;;
4422;SDS011;2224;49.814;8.650;2022-12-31T13:22:52;1.50;;;1.27;;
4422;SDS011;2224;49.814;8.650;2022-12-31T13:28:10;2.03;;;1.50;;
4422;SDS011;2224;49.814;8.650;2022-12-31T13:30:40;1.57;;;1.30;;
4422;SDS011;2224;49.814;8.650;2022-12-31T13:33:13;4.43;;;1.90;;
4422;SDS011;2224;49.814;8.650;2022-12-31T13:35:48;2.40;;;1.70;;
4422;SDS011;2224;49.814;8.650;2022-12-31T13:38:17;2.37;;;1.57;;
4422;SDS011;2224;49.814;8.650;2022-12-31T13:40:48;5.03;;;1.60;;
4422;SDS011;2224;49.814;8.650;2022-12-31T13:43:19;2.37;;;1.60;;
4422;SDS011;2224;49.814;8.650;2022-12-31T13:45:54;3.80;;;1.47;;
4422;SDS011;2224;49.814;8.650;2022-12-31T13:48:28;2.23;;;1.37;;
4422;SDS011;2224;49.814;8.650;2022-12-31T13:50:58;3.63;;;1.60;;
4422;SDS011;2224;49.814;8.650;2022-12-31T13:53:53;1.60;;;1.50;;
4422;SDS011;2224;49.814;8.650;2022-12-31T13:56:32;1.60;;;1.20;;
4422;SDS011;2224;49.814;8.650;2022-12-31T13:59:02;2.07;;;1.70;;
4422;SDS011;2224;49.814;8.650;2022-12-31T14:01:38;2.57;;;1.37;;
4422;SDS011;2224;49.814;8.650;2022-12-31T14:06:54;3.00;;;1.67;;
4422;SDS011;2224;49.814;8.650;2022-12-31T14:09:26;2.30;;;1.30;;
4422;SDS011;2224;49.814;8.650;2022-12-31T14:11:57;2.10;;;1.60;;
4422;SDS011;2224;49.814;8.650;2022-12-31T14:15:07;1.80;;;1.43;;
4422;SDS011;2224;49.814;8.650;2022-12-31T14:20:48;1.77;;;1.30;;
4422;SDS011;2224;49.814;8.650;2022-12-31T14:23:55;3.93;;;1.50;;
4422;SDS011;2224;49.814;8.650;2022-12-31T14:26:55;1.80;;;1.30;;
4422;SDS011;2224;49.814;8.650;2022-12-31T14:34:32;3.93;;;1.63;;
4422;SDS011;2224;49.814;8.650;2022-12-31T14:37:22;1.93;;;1.33;;
4422;SDS011;2224;49.814;8.650;2022-12-31T14:50:30;2.00;;;1.10;;
4422;SDS011;2224;49.814;8.650;2022-12-31T14:57:52;2.50;;;1.53;;
4422;SDS011;2224;49.814;8.650;2022-12-31T15:02:54;2.00;;;1.20;;
4422;SDS011;2224;49.814;8.650;2022-12-31T15:05:25;1.20;;;1.10;;
4422;SDS011;2224;49.814;8.650;2022-12-31T15:13:04;1.43;;;1.33;;
4422;SDS011;2224;49.814;8.650;2022-12-31T15:18:40;2.93;;;1.37;;
4422;SDS011;2224;49.814;8.650;2022-12-31T15:21:31;1.70;;;1.37;;
4422;SDS011;2224;49.814;8.650;2022-12-31T15:24:00;2.00;;;1.57;;
4422;SDS011;2224;49.814;8.650;2022-12-31T15:26:27;2.27;;;1.53;;
4422;SDS011;2224;49.814;8.650;2022-12-31T15:29:04;1.97;;;1.77;;
4422;SDS011;2224;49.814;8.650;2022-12-31T15:31:32;1.63;;;1.47;;
4422;SDS011;2224;49.814;8.650;2022-12-31T15:34:03;1.73;;;1.63;;
4422;SDS011;2224;49.814;8.650;2022-12-31T15:36:31;1.33;;;1.23;;
4422;SDS011;2224;49.814;8.650;2022-12-31T15:41:44;2.07;;;1.87;;
4422;SDS011;2224;49.814;8.650;2022-12-31T15:47:03;1.90;;;1.70;;
4422;SDS011;2224;49.814;8.650;2022-12-31T15:49:36;2.80;;;1.67;;
4422;SDS011;2224;49.814;8.650;2022-12-31T15:52:11;2.67;;;1.57;;
4422;SDS011;2224;49.814;8.650;2022-12-31T15:54:46;1.87;;;1.73;;
4422;SDS011;2224;49.814;8.650;2022-12-31T15:57:17;4.00;;;1.97;;
4422;SDS011;2224;49.814;8.650;2022-12-31T15:59:44;3.10;;;2.10;;
4422;SDS011;2224;49.814;8.650;2022-12-31T16:02:16;2.90;;;2.00;;
4422;SDS011;2224;49.814;8.650;2022-12-31T16:04:45;3.30;;;2.37;;
4422;SDS011;2224;49.814;8.650;2022-12-31T16:07:11;1.97;;;1.77;;
4422;SDS011;2224;49.814;8.650;2022-12-31T16:09:36;3.60;;;2.30;;
4422;SDS011;2224;49.814;8.650;2022-12-31T16:12:14;3.03;;;2.20;;
4422;SDS011;2224;49.814;8.650;2022-12-31T16:14:44;1.60;;;1.50;;
4422;SDS011;2224;49.814;8.650;2022-12-31T16:19:54;3.00;;;1.97;;
4422;SDS011;2224;49.814;8.650;2022-12-31T16:22:24;3.20;;;2.00;;
4422;SDS011;2224;49.814;8.650;2022-12-31T16:24:52;5.53;;;2.40;;
4422;SDS011;2224;49.814;8.650;2022-12-31T16:27:19;2.93;;;2.00;;
4422;SDS011;2224;49.814;8.650;2022-12-31T16:29:45;2.73;;;1.77;;
4422;SDS011;2224;49.814;8.650;2022-12-31T16:32:21;2.80;;;2.40;;
4422;SDS011;2224;49.814;8.650;2022-12-31T16:34:46;2.63;;;2.03;;
4422;SDS011;2224;49.814;8.650;2022-12-31T16:37:15;3.37;;;1.97;;
4422;SDS011;2224;49.814;8.650;2022-12-31T16:42:20;3.27;;;2.20;;
4422;SDS011;2224;49.814;8.650;2022-12-31T16:44:50;3.13;;;2.30;;
4422;SDS011;2224;49.814;8.650;2022-12-31T16:47:17;3.03;;;2.40;;
4422;SDS011;2224;49.814;8.650;2022-12-31T16:50:06;3.40;;;2.30;;
4422;SDS011;2224;49.814;8.650;2022-12-31T16:52:38;3.97;;;3.60;;
4422;SDS011;2224;49.814;8.650;2022-12-31T16:55:08;2.80;;;2.60;;
4422;SDS011;2224;49.814;8.650;2022-12-31T16:57:35;5.00;;;3.10;;
4422;SDS011;2224;49.814;8.650;2022-12-31T17:00:02;2.57;;;2.37;;
4422;SDS011;2224;49.814;8.650;2022-12-31T17:02:33;1.83;;;1.60;;
4422;SDS011;2224;49.814;8.650;2022-12-31T17:05:01;2.53;;;2.10;;
4422;SDS011;2224;49.814;8.650;2022-12-31T17:12:34;2.93;;;2.63;;
4422;SDS011;2224;49.814;8.650;2022-12-31T17:15:05;2.13;;;1.93;;
4422;SDS011;2224;49.814;8.650;2022-12-31T17:17:31;3.53;;;2.50;;
4422;SDS011;2224;49.814;8.650;2022-12-31T17:20:00;3.10;;;2.73;;
4422;SDS011;2224;49.814;8.650;2022-12-31T17:25:23;2.40;;;2.20;;
4422;SDS011;2224;49.814;8.650;2022-12-31T17:28:04;3.53;;;2.33;;
4422;SDS011;2224;49.814;8.650;2022-12-31T17:33:03;2.50;;;2.30;;
4422;SDS011;2224;49.814;8.650;2022-12-31T17:36:34;8.00;;;3.13;;
4422;SDS011;2224;49.814;8.650;2022-12-31T17:38:39;3.03;;;2.43;;
4422;SDS011;2224;49.814;8.650;2022-12-31T17:43:36;3.07;;;2.47;;
4422;SDS011;2224;49.814;8.650;2022-12-31T17:46:02;2.93;;;2.33;;
4422;SDS011;2224;49.814;8.650;2022-12-31T17:48:34;3.47;;;2.30;;
4422;SDS011;2224;49.814;8.650;2022-12-31T17:51:00;3.83;;;2.37;;
4422;SDS011;2224;49.814;8.650;2022-12-31T17:53:26;3.47;;;2.20;;
4422;SDS011;2224;49.814;8.650;2022-12-31T17:55:52;3.53;;;2.30;;
4422;SDS011;2224;49.814;8.650;2022-12-31T17:58:24;2.77;;;2.23;;
4422;SDS011;2224;49.814;8.650;2022-12-31T18:00:53;4.67;;;2.97;;
4422;SDS011;2224;49.814;8.650;2022-12-31T18:03:19;2.80;;;2.50;;
4422;SDS011;2224;49.814;8.650;2022-12-31T18:05:44;3.93;;;2.80;;
4422;SDS011;2224;49.814;8.650;2022-12-31T18:08:10;3.53;;;2.90;;
4422;SDS011;2224;49.814;8.650;2022-12-31T18:10:36;4.20;;;2.97;;
4422;SDS011;2224;49.814;8.650;2022-12-31T18:13:09;2.97;;;2.67;;
4422;SDS011;2224;49.814;8.650;2022-12-31T18:15:38;2.40;;;2.03;;
4422;SDS011;2224;49.814;8.650;2022-12-31T18:18:14;3.30;;;2.60;;
4422;SDS011;2224;49.814;8.650;2022-12-31T18:20:41;4.10;;;2.30;;
4422;SDS011;2224;49.814;8.650;2022-12-31T18:23:08;2.37;;;2.17;;
4422;SDS011;2224;49.814;8.650;2022-12-31T18:25:48;2.63;;;2.27;;
4422;SDS011;2224;49.814;8.650;2022-12-31T18:28:13;7.13;;;3.00;;
4422;SDS011;2224;49.814;8.650;2022-12-31T18:30:39;2.93;;;2.63;;
4422;SDS011;2224;49.814;8.650;2022-12-31T18:33:05;5.20;;;3.20;;
4422;SDS011;2224;49.814;8.650;2022-12-31T18:35:30;6.73;;;4.83;;
4422;SDS011;2224;49.814;8.650;2022-12-31T18:37:56;7.10;;;3.63;;
4422;SDS011;2224;49.814;8.650;2022-12-31T18:40:21;3.60;;;3.00;;
4422;SDS011;2224;49.814;8.650;2022-12-31T18:42:46;3.67;;;2.60;;
4422;SDS011;2224;49.814;8.650;2022-12-31T18:45:16;4.00;;;2.87;;
4422;SDS011;2224;49.814;8.650;2022-12-31T18:47:42;4.73;;;2.60;;
4422;SDS011;2224;49.814;8.650;2022-12-31T18:50:08;4.77;;;3.17;;
4422;SDS011;2224;49.814;8.650;2022-12-31T18:52:38;4.30;;;3.00;;
4422;SDS011;2224;49.814;8.650;2022-12-31T18:55:11;3.57;;;3.27;;
4422;SDS011;2224;49.814;8.650;2022-12-31T18:57:43;6.20;;;4.07;;
4422;SDS011;2224;49.814;8.650;2022-12-31T19:00:08;5.70;;;3.87;;
4422;SDS011;2224;49.814;8.650;2022-12-31T19:02:34;3.47;;;3.17;;
4422;SDS011;2224;49.814;8.650;2022-12-31T19:05:00;4.47;;;3.80;;
4422;SDS011;2224;49.814;8.650;2022-12-31T19:07:25;4.33;;;3.27;;
4422;SDS011;2224;49.814;8.650;2022-12-31T19:09:51;4.43;;;3.20;;
4422;SDS011;2224;49.814;8.650;2022-12-31T19:12:16;3.30;;;3.00;;
4422;SDS011;2224;49.814;8.650;2022-12-31T19:14:41;3.83;;;3.53;;
4422;SDS011;2224;49.814;8.650;2022-12-31T19:17:07;3.63;;;3.10;;
4422;SDS011;2224;49.814;8.650;2022-12-31T19:19:32;3.73;;;3.27;;
4422;SDS011;2224;49.814;8.650;2022-12-31T19:21:58;5.40;;;3.30;;
4422;SDS011;2224;49.814;8.650;2022-12-31T19:24:24;5.10;;;3.77;;
4422;SDS011;2224;49.814;8.650;2022-12-31T19:26:50;4.97;;;3.63;;
4422;SDS011;2224;49.814;8.650;2022-12-31T19:29:20;5.83;;;4.47;;
4422;SDS011;2224;49.814;8.650;2022-12-31T19:31:46;3.90;;;3.40;;
4422;SDS011;2224;49.814;8.650;2022-12-31T19:34:12;4.10;;;3.67;;
4422;SDS011;2224;49.814;8.650;2022-12-31T19:36:38;4.87;;;3.30;;
4422;SDS011;2224;49.814;8.650;2022-12-31T19:39:04;4.40;;;4.00;;
4422;SDS011;2224;49.814;8.650;2022-12-31T19:41:30;3.43;;;3.13;;